»·PEaware :: N92212 KVGT-KPOC

N92212 :: KVGT-KPOC

FLIGHT INFORMATION

Flight Status: Arrived
Operator: Privately registered:
United States
More flights under this callsign
Pilot: Gerardo G. (23685)
Aircraft: CESSNA 550 CITATION 2/S2/BRAVO
(C550)
More flights by this aircraft type
Origin: KVGT North Las Vegas
United States
Destination: KPOC Brackett
United States
More flights between these airports :: More routes between these airports
Route: +NOTWN5 LAS CRESO V283 HEC V21 PDZ
File this flight plan on PilotEdge
Remarks:
Altitude:
(Current/Filed)
24,000ft
Speed:
(Current/Filed)
385kts
Departed: 08-Jan-20 09:24 PM
Arrived: 08-Jan-20 10:14 PM
Distance/Time
Traveled:
180nm/0:50
Distance/Time
To Go:
Arrived

Flight Plot

Page will automatically refresh every two minutes.

Flight plan parsing failed; only flown route is shown


Map Options




Map Legend


Flown Route
Filed Route
Departure Airport
Arrival Airport
Navaid (VOR, NDB)
Fix

Horizontal Profiles

Position Reports

Time Latitude Longitude Heading Altitude Ground
Speed
08-Jan-20 20:44 36.209245 -115.198732 314 2197ft 0kts
08-Jan-20 20:45 36.209245 -115.198732 314 2197ft 0kts
08-Jan-20 20:46 36.209245 -115.198732 314 2197ft 0kts
08-Jan-20 20:47 36.209245 -115.198732 314 2197ft 0kts
08-Jan-20 20:48 36.209245 -115.198732 314 2197ft 0kts
08-Jan-20 20:49 36.209245 -115.198732 314 2197ft 0kts
08-Jan-20 20:50 36.209245 -115.198732 314 2197ft 0kts
08-Jan-20 20:51 36.209245 -115.198732 314 2197ft 0kts
08-Jan-20 20:52 36.209245 -115.198732 314 2197ft 0kts
08-Jan-20 20:53 36.209245 -115.198732 314 2197ft 0kts
08-Jan-20 20:54 36.209245 -115.198732 314 2197ft 0kts
08-Jan-20 20:55 36.209245 -115.198732 314 2197ft 0kts
08-Jan-20 20:56 36.209245 -115.198732 314 2197ft 0kts
08-Jan-20 20:57 36.209245 -115.198732 314 2197ft 0kts
08-Jan-20 20:58 36.209245 -115.198732 314 2197ft 0kts
08-Jan-20 20:59 36.209245 -115.198732 314 2197ft 0kts
08-Jan-20 21:00 36.209245 -115.198732 314 2197ft 0kts
08-Jan-20 21:01 36.209245 -115.198732 314 2197ft 0kts
08-Jan-20 21:02 36.209245 -115.198732 314 2197ft 0kts
08-Jan-20 21:03 36.209245 -115.198732 314 2197ft 0kts
08-Jan-20 21:04 36.209245 -115.198732 314 2197ft 0kts
08-Jan-20 21:05 36.209245 -115.198732 314 2197ft 0kts
08-Jan-20 21:06 36.209245 -115.198732 314 2197ft 0kts
08-Jan-20 21:07 36.209245 -115.198732 314 2197ft 0kts
08-Jan-20 21:08 36.209245 -115.198732 314 2197ft 0kts
08-Jan-20 21:09 36.209245 -115.198732 314 2197ft 0kts
08-Jan-20 21:10 36.209245 -115.198732 314 2197ft 0kts
08-Jan-20 21:11 36.209290 -115.198730 343 2197ft 0kts
08-Jan-20 21:12 36.209349 -115.198752 343 2197ft 0kts
08-Jan-20 21:13 36.209365 -115.198758 343 2197ft 0kts
08-Jan-20 21:14 36.209365 -115.198758 343 2197ft 0kts
08-Jan-20 21:15 36.209365 -115.198758 343 2197ft 0kts
08-Jan-20 21:16 36.209489 -115.198757 10 2197ft 0kts
08-Jan-20 21:17 36.209573 -115.198736 12 2197ft 0kts
08-Jan-20 21:18 36.210211 -115.198660 25 2198ft 1kts
08-Jan-20 21:19 36.211981 -115.200429 313 2204ft 17kts
08-Jan-20 21:20 36.212639 -115.203169 268 2209ft 0kts
08-Jan-20 21:21 36.212741 -115.203307 353 2210ft 2kts
08-Jan-20 21:22 36.214338 -115.202154 123 2207ft 2kts
08-Jan-20 21:23 36.205470 -115.191204 135 2583ft 130kts
08-Jan-20 21:24 36.180856 -115.204519 265 4589ft 163kts
08-Jan-20 21:25 36.197053 -115.252207 341 5041ft 183kts
08-Jan-20 21:26 36.246843 -115.285222 322 5055ft 214kts
08-Jan-20 21:27 36.270029 -115.247144 141 7233ft 210kts
08-Jan-20 21:28 36.214150 -115.232082 179 10668ft 198kts
08-Jan-20 21:29 36.158106 -115.212365 146 13712ft 217kts
08-Jan-20 21:30 36.106549 -115.167970 156 16521ft 220kts
08-Jan-20 21:31 36.046415 -115.141501 196 18761ft 224kts
08-Jan-20 21:32 35.977221 -115.175198 193 18993ft 314kts
08-Jan-20 21:33 35.878175 -115.169762 184 18989ft 365kts
08-Jan-20 21:34 35.773357 -115.171594 186 19006ft 366kts
08-Jan-20 21:35 35.684716 -115.175925 216 21820ft 290kts
08-Jan-20 21:36 35.648531 -115.260303 258 22861ft 271kts
08-Jan-20 21:37 35.617901 -115.355117 253 22988ft 306kts
08-Jan-20 21:38 35.566934 -115.448755 237 22987ft 333kts
08-Jan-20 21:39 35.503274 -115.538737 235 22986ft 343kts
08-Jan-20 21:40 35.440493 -115.624794 235 23985ft 330kts
08-Jan-20 21:41 35.374888 -115.714040 234 23994ft 344kts
08-Jan-20 21:42 35.308038 -115.804346 234 23993ft 350kts
08-Jan-20 21:43 35.240303 -115.895413 234 23993ft 353kts
08-Jan-20 21:44 35.172296 -115.986995 234 23992ft 354kts
08-Jan-20 21:45 35.104060 -116.078507 234 23992ft 354kts
08-Jan-20 21:46 35.044067 -116.174397 265 23992ft 334kts
08-Jan-20 21:47 34.971592 -116.249612 209 24015ft 371kts
08-Jan-20 21:48 34.898686 -116.333930 235 24038ft 352kts
08-Jan-20 21:49 34.827833 -116.422859 233 24031ft 354kts
08-Jan-20 21:50 34.758214 -116.512284 233 24030ft 354kts
08-Jan-20 21:51 34.687911 -116.601384 233 24031ft 354kts
08-Jan-20 21:52 34.617733 -116.690493 233 24038ft 355kts
08-Jan-20 21:53 34.547294 -116.779698 232 24038ft 356kts
08-Jan-20 21:54 34.476685 -116.868779 232 24037ft 356kts
08-Jan-20 21:55 34.405650 -116.958082 233 24044ft 357kts
08-Jan-20 21:56 34.334928 -117.046830 233 22067ft 344kts
08-Jan-20 21:57 34.269758 -117.128240 232 18987ft 316kts
08-Jan-20 21:58 34.208793 -117.204449 231 15906ft 302kts
08-Jan-20 21:59 34.149956 -117.277737 230 12815ft 292kts
08-Jan-20 22:00 34.096301 -117.342217 216 12058ft 243kts
08-Jan-20 22:01 34.036371 -117.378089 233 11993ft 224kts
08-Jan-20 22:02 33.992524 -117.436718 233 11098ft 246kts
08-Jan-20 22:03 33.960414 -117.503581 297 7894ft 232kts
08-Jan-20 22:04 34.017333 -117.514383 34 4697ft 220kts
08-Jan-20 22:05 34.061004 -117.486966 327 3488ft 143kts
08-Jan-20 22:06 34.080002 -117.535296 275 3465ft 173kts
08-Jan-20 22:07 34.081569 -117.575419 274 3185ft 89kts
08-Jan-20 22:08 34.083532 -117.612919 273 3204ft 131kts
08-Jan-20 22:09 34.085498 -117.656886 273 3195ft 117kts
08-Jan-20 22:10 34.087367 -117.696865 274 2619ft 118kts
08-Jan-20 22:11 34.089278 -117.738218 274 1797ft 114kts
08-Jan-20 22:12 34.091086 -117.776965 271 1017ft 103kts
08-Jan-20 22:13 34.091237 -117.790433 177 971ft 0kts
08-Jan-20 22:14 34.090825 -117.785938 92 985ft 18kts
08-Jan-20 22:15 34.089698 -117.782823 92 994ft 0kts
08-Jan-20 22:16 34.089698 -117.782823 92 994ft 0kts
08-Jan-20 22:17 34.089698 -117.782823 92 994ft 0kts

Navigation Log

Ident Type
Flight plan parsing failed, navigation log unavailable